sensor_id;sensor_type;location;lat;lon;timestamp;P1;durP1;ratioP1;P2;durP2;ratioP2
75303;SDS011;64042;50.916;6.988;2022-11-20T00:02:19;3.50;;;3.20;;
75303;SDS011;64042;50.916;6.988;2022-11-20T00:04:45;4.10;;;2.90;;
75303;SDS011;64042;50.916;6.988;2022-11-20T00:07:10;4.43;;;4.13;;
75303;SDS011;64042;50.916;6.988;2022-11-20T00:09:35;3.70;;;2.92;;
75303;SDS011;64042;50.916;6.988;2022-11-20T00:12:00;3.60;;;3.30;;
75303;SDS011;64042;50.916;6.988;2022-11-20T00:14:26;3.47;;;2.93;;
75303;SDS011;64042;50.916;6.988;2022-11-20T00:16:51;2.77;;;2.43;;
75303;SDS011;64042;50.916;6.988;2022-11-20T00:19:16;3.33;;;3.03;;
75303;SDS011;64042;50.916;6.988;2022-11-20T00:21:42;2.80;;;2.60;;
75303;SDS011;64042;50.916;6.988;2022-11-20T00:24:08;2.60;;;2.30;;
75303;SDS011;64042;50.916;6.988;2022-11-20T00:26:34;2.80;;;2.60;;
75303;SDS011;64042;50.916;6.988;2022-11-20T00:29:00;3.30;;;2.60;;
75303;SDS011;64042;50.916;6.988;2022-11-20T00:31:26;3.92;;;3.63;;
75303;SDS011;64042;50.916;6.988;2022-11-20T00:33:52;2.92;;;2.70;;
75303;SDS011;64042;50.916;6.988;2022-11-20T00:36:18;3.55;;;2.88;;
75303;SDS011;64042;50.916;6.988;2022-11-20T00:38:45;3.33;;;3.05;;
75303;SDS011;64042;50.916;6.988;2022-11-20T00:41:11;4.00;;;3.70;;
75303;SDS011;64042;50.916;6.988;2022-11-20T00:43:39;3.80;;;3.50;;
75303;SDS011;64042;50.916;6.988;2022-11-20T00:46:09;2.97;;;2.67;;
75303;SDS011;64042;50.916;6.988;2022-11-20T00:48:36;3.80;;;3.50;;
75303;SDS011;64042;50.916;6.988;2022-11-20T00:51:02;2.90;;;2.70;;
75303;SDS011;64042;50.916;6.988;2022-11-20T00:53:27;3.97;;;3.67;;
75303;SDS011;64042;50.916;6.988;2022-11-20T00:55:59;3.15;;;2.95;;
75303;SDS011;64042;50.916;6.988;2022-11-20T00:58:28;3.53;;;3.22;;
75303;SDS011;64042;50.916;6.988;2022-11-20T01:00:59;3.10;;;2.80;;
75303;SDS011;64042;50.916;6.988;2022-11-20T01:03:26;3.55;;;3.25;;
75303;SDS011;64042;50.916;6.988;2022-11-20T01:05:51;3.28;;;2.97;;
75303;SDS011;64042;50.916;6.988;2022-11-20T01:08:16;3.63;;;3.27;;
75303;SDS011;64042;50.916;6.988;2022-11-20T01:10:41;2.72;;;2.53;;
75303;SDS011;64042;50.916;6.988;2022-11-20T01:13:07;4.00;;;3.70;;
75303;SDS011;64042;50.916;6.988;2022-11-20T01:15:51;3.58;;;3.28;;
75303;SDS011;64042;50.916;6.988;2022-11-20T01:18:16;3.80;;;3.50;;
75303;SDS011;64042;50.916;6.988;2022-11-20T01:20:42;3.47;;;3.17;;
75303;SDS011;64042;50.916;6.988;2022-11-20T01:23:07;3.20;;;2.90;;
75303;SDS011;64042;50.916;6.988;2022-11-20T01:25:34;3.20;;;3.00;;
75303;SDS011;64042;50.916;6.988;2022-11-20T01:27:59;2.97;;;2.75;;
75303;SDS011;64042;50.916;6.988;2022-11-20T01:30:24;3.17;;;2.83;;
75303;SDS011;64042;50.916;6.988;2022-11-20T01:32:50;2.73;;;2.53;;
75303;SDS011;64042;50.916;6.988;2022-11-20T01:35:15;3.47;;;2.85;;
75303;SDS011;64042;50.916;6.988;2022-11-20T01:37:41;2.73;;;2.47;;
75303;SDS011;64042;50.916;6.988;2022-11-20T01:40:06;3.47;;;2.77;;
75303;SDS011;64042;50.916;6.988;2022-11-20T01:42:32;3.53;;;3.20;;
75303;SDS011;64042;50.916;6.988;2022-11-20T01:48:07;2.88;;;2.58;;
75303;SDS011;64042;50.916;6.988;2022-11-20T01:50:33;3.92;;;2.78;;
75303;SDS011;64042;50.916;6.988;2022-11-20T01:53:00;3.55;;;3.25;;
75303;SDS011;64042;50.916;6.988;2022-11-20T01:55:29;3.42;;;2.80;;
75303;SDS011;64042;50.916;6.988;2022-11-20T01:57:56;3.42;;;2.50;;
75303;SDS011;64042;50.916;6.988;2022-11-20T02:00:22;2.95;;;2.75;;
75303;SDS011;64042;50.916;6.988;2022-11-20T02:02:49;3.25;;;3.03;;
75303;SDS011;64042;50.916;6.988;2022-11-20T02:05:27;2.55;;;2.35;;
75303;SDS011;64042;50.916;6.988;2022-11-20T02:07:56;3.05;;;2.75;;
75303;SDS011;64042;50.916;6.988;2022-11-20T02:10:22;3.70;;;3.38;;
75303;SDS011;64042;50.916;6.988;2022-11-20T02:12:47;3.55;;;3.17;;
75303;SDS011;64042;50.916;6.988;2022-11-20T02:15:32;4.28;;;3.03;;
75303;SDS011;64042;50.916;6.988;2022-11-20T02:17:58;2.85;;;2.60;;
75303;SDS011;64042;50.916;6.988;2022-11-20T02:20:23;2.92;;;2.72;;
75303;SDS011;64042;50.916;6.988;2022-11-20T02:22:50;3.53;;;3.22;;
75303;SDS011;64042;50.916;6.988;2022-11-20T02:25:20;2.75;;;2.55;;
75303;SDS011;64042;50.916;6.988;2022-11-20T02:27:46;2.83;;;2.50;;
75303;SDS011;64042;50.916;6.988;2022-11-20T02:30:11;2.70;;;2.50;;
75303;SDS011;64042;50.916;6.988;2022-11-20T02:32:37;3.05;;;2.85;;
75303;SDS011;64042;50.916;6.988;2022-11-20T02:35:46;4.38;;;4.07;;
75303;SDS011;64042;50.916;6.988;2022-11-20T02:37:53;2.85;;;2.65;;
75303;SDS011;64042;50.916;6.988;2022-11-20T02:40:19;3.33;;;3.13;;
75303;SDS011;64042;50.916;6.988;2022-11-20T02:42:45;3.17;;;2.88;;
75303;SDS011;64042;50.916;6.988;2022-11-20T02:45:10;3.23;;;2.93;;
75303;SDS011;64042;50.916;6.988;2022-11-20T02:47:36;4.25;;;3.92;;
75303;SDS011;64042;50.916;6.988;2022-11-20T02:50:02;2.78;;;2.58;;
75303;SDS011;64042;50.916;6.988;2022-11-20T02:52:28;3.58;;;3.28;;
75303;SDS011;64042;50.916;6.988;2022-11-20T02:54:53;3.80;;;3.50;;
75303;SDS011;64042;50.916;6.988;2022-11-20T02:57:18;2.87;;;2.60;;
75303;SDS011;64042;50.916;6.988;2022-11-20T02:59:44;3.47;;;3.17;;
75303;SDS011;64042;50.916;6.988;2022-11-20T03:02:09;2.97;;;2.70;;
75303;SDS011;64042;50.916;6.988;2022-11-20T03:04:34;3.28;;;3.05;;
75303;SDS011;64042;50.916;6.988;2022-11-20T03:07:00;3.10;;;2.83;;
75303;SDS011;64042;50.916;6.988;2022-11-20T03:09:25;2.43;;;2.23;;
75303;SDS011;64042;50.916;6.988;2022-11-20T03:11:50;3.10;;;2.83;;
75303;SDS011;64042;50.916;6.988;2022-11-20T03:14:16;3.22;;;2.92;;
75303;SDS011;64042;50.916;6.988;2022-11-20T03:16:41;3.30;;;3.00;;
75303;SDS011;64042;50.916;6.988;2022-11-20T03:19:06;3.00;;;2.77;;
75303;SDS011;64042;50.916;6.988;2022-11-20T03:21:35;3.10;;;2.80;;
75303;SDS011;64042;50.916;6.988;2022-11-20T03:24:01;3.50;;;3.20;;
75303;SDS011;64042;50.916;6.988;2022-11-20T03:26:27;2.80;;;2.60;;
75303;SDS011;64042;50.916;6.988;2022-11-20T03:28:53;3.65;;;3.35;;
75303;SDS011;64042;50.916;6.988;2022-11-20T03:31:27;3.42;;;3.13;;
75303;SDS011;64042;50.916;6.988;2022-11-20T03:33:53;3.30;;;2.60;;
75303;SDS011;64042;50.916;6.988;2022-11-20T03:36:19;3.55;;;3.25;;
75303;SDS011;64042;50.916;6.988;2022-11-20T03:38:45;3.40;;;3.10;;
75303;SDS011;64042;50.916;6.988;2022-11-20T03:41:12;3.22;;;2.70;;
75303;SDS011;64042;50.916;6.988;2022-11-20T03:43:39;3.25;;;2.95;;
75303;SDS011;64042;50.916;6.988;2022-11-20T03:46:05;2.92;;;2.72;;
75303;SDS011;64042;50.916;6.988;2022-11-20T03:48:30;3.33;;;3.10;;
75303;SDS011;64042;50.916;6.988;2022-11-20T03:51:08;3.33;;;3.13;;
75303;SDS011;64042;50.916;6.988;2022-11-20T03:53:38;3.20;;;3.00;;
75303;SDS011;64042;50.916;6.988;2022-11-20T03:56:07;3.30;;;2.75;;
75303;SDS011;64042;50.916;6.988;2022-11-20T03:58:33;2.45;;;2.25;;
75303;SDS011;64042;50.916;6.988;2022-11-20T04:01:05;3.92;;;3.45;;
75303;SDS011;64042;50.916;6.988;2022-11-20T04:03:34;2.88;;;2.67;;
75303;SDS011;64042;50.916;6.988;2022-11-20T04:06:01;3.05;;;2.63;;
75303;SDS011;64042;50.916;6.988;2022-11-20T04:08:32;3.45;;;3.15;;
75303;SDS011;64042;50.916;6.988;2022-11-20T04:11:07;3.63;;;3.33;;
75303;SDS011;64042;50.916;6.988;2022-11-20T04:13:33;3.45;;;3.25;;
75303;SDS011;64042;50.916;6.988;2022-11-20T04:15:59;2.87;;;2.67;;
75303;SDS011;64042;50.916;6.988;2022-11-20T04:18:24;3.90;;;3.37;;
75303;SDS011;64042;50.916;6.988;2022-11-20T04:20:49;3.03;;;2.50;;
75303;SDS011;64042;50.916;6.988;2022-11-20T04:23:14;2.80;;;2.60;;
75303;SDS011;64042;50.916;6.988;2022-11-20T04:25:40;2.70;;;2.50;;
75303;SDS011;64042;50.916;6.988;2022-11-20T04:28:05;3.23;;;3.03;;
75303;SDS011;64042;50.916;6.988;2022-11-20T04:30:30;3.13;;;2.80;;
75303;SDS011;64042;50.916;6.988;2022-11-20T04:32:56;3.28;;;3.00;;
75303;SDS011;64042;50.916;6.988;2022-11-20T04:35:21;3.27;;;2.97;;
75303;SDS011;64042;50.916;6.988;2022-11-20T04:37:46;3.10;;;2.67;;
75303;SDS011;64042;50.916;6.988;2022-11-20T04:40:11;2.75;;;2.47;;
75303;SDS011;64042;50.916;6.988;2022-11-20T04:42:37;3.15;;;2.85;;
75303;SDS011;64042;50.916;6.988;2022-11-20T04:45:02;2.60;;;2.40;;
75303;SDS011;64042;50.916;6.988;2022-11-20T04:47:28;2.47;;;2.28;;
75303;SDS011;64042;50.916;6.988;2022-11-20T04:49:53;2.77;;;2.57;;
75303;SDS011;64042;50.916;6.988;2022-11-20T04:52:18;3.23;;;3.00;;
75303;SDS011;64042;50.916;6.988;2022-11-20T04:54:43;2.78;;;2.58;;
75303;SDS011;64042;50.916;6.988;2022-11-20T04:57:09;2.90;;;2.70;;
75303;SDS011;64042;50.916;6.988;2022-11-20T04:59:34;3.17;;;2.97;;
75303;SDS011;64042;50.916;6.988;2022-11-20T05:01:59;2.80;;;2.57;;
75303;SDS011;64042;50.916;6.988;2022-11-20T05:04:25;3.00;;;2.70;;
75303;SDS011;64042;50.916;6.988;2022-11-20T05:06:50;3.30;;;3.00;;
75303;SDS011;64042;50.916;6.988;2022-11-20T05:09:15;3.47;;;3.28;;
75303;SDS011;64042;50.916;6.988;2022-11-20T05:11:41;2.90;;;2.60;;
75303;SDS011;64042;50.916;6.988;2022-11-20T05:14:06;3.38;;;3.08;;
75303;SDS011;64042;50.916;6.988;2022-11-20T05:16:33;2.83;;;2.42;;
75303;SDS011;64042;50.916;6.988;2022-11-20T05:18:59;3.20;;;2.90;;
75303;SDS011;64042;50.916;6.988;2022-11-20T05:21:24;2.87;;;2.57;;
75303;SDS011;64042;50.916;6.988;2022-11-20T05:23:49;2.87;;;2.67;;
75303;SDS011;64042;50.916;6.988;2022-11-20T05:26:19;3.03;;;2.70;;
75303;SDS011;64042;50.916;6.988;2022-11-20T05:28:46;3.15;;;2.80;;
75303;SDS011;64042;50.916;6.988;2022-11-20T05:31:13;3.10;;;2.80;;
75303;SDS011;64042;50.916;6.988;2022-11-20T05:33:40;3.45;;;3.25;;
75303;SDS011;64042;50.916;6.988;2022-11-20T05:36:06;3.67;;;3.38;;
75303;SDS011;64042;50.916;6.988;2022-11-20T05:38:32;3.58;;;3.28;;
75303;SDS011;64042;50.916;6.988;2022-11-20T05:41:17;3.63;;;2.83;;
75303;SDS011;64042;50.916;6.988;2022-11-20T05:43:44;3.90;;;3.60;;
75303;SDS011;64042;50.916;6.988;2022-11-20T05:46:11;3.15;;;2.95;;
75303;SDS011;64042;50.916;6.988;2022-11-20T05:48:38;4.55;;;4.15;;
75303;SDS011;64042;50.916;6.988;2022-11-20T05:51:04;3.22;;;3.00;;
75303;SDS011;64042;50.916;6.988;2022-11-20T05:53:31;3.95;;;3.65;;
75303;SDS011;64042;50.916;6.988;2022-11-20T05:55:58;3.20;;;2.90;;
75303;SDS011;64042;50.916;6.988;2022-11-20T05:58:24;3.42;;;3.20;;
75303;SDS011;64042;50.916;6.988;2022-11-20T06:00:49;3.88;;;3.58;;
75303;SDS011;64042;50.916;6.988;2022-11-20T06:03:14;3.17;;;2.88;;
75303;SDS011;64042;50.916;6.988;2022-11-20T06:05:40;3.13;;;2.83;;
75303;SDS011;64042;50.916;6.988;2022-11-20T06:08:05;2.80;;;2.60;;
75303;SDS011;64042;50.916;6.988;2022-11-20T06:10:30;3.40;;;3.13;;
75303;SDS011;64042;50.916;6.988;2022-11-20T06:12:57;3.10;;;2.90;;
75303;SDS011;64042;50.916;6.988;2022-11-20T06:15:22;3.33;;;3.03;;
75303;SDS011;64042;50.916;6.988;2022-11-20T06:17:51;4.23;;;3.83;;
75303;SDS011;64042;50.916;6.988;2022-11-20T06:20:17;2.67;;;2.30;;
75303;SDS011;64042;50.916;6.988;2022-11-20T06:22:42;3.60;;;3.30;;
75303;SDS011;64042;50.916;6.988;2022-11-20T06:25:08;3.50;;;3.30;;
75303;SDS011;64042;50.916;6.988;2022-11-20T06:27:33;3.67;;;3.37;;
75303;SDS011;64042;50.916;6.988;2022-11-20T06:29:58;2.70;;;2.50;;
75303;SDS011;64042;50.916;6.988;2022-11-20T06:32:24;2.80;;;2.60;;
75303;SDS011;64042;50.916;6.988;2022-11-20T06:34:49;3.10;;;2.90;;
75303;SDS011;64042;50.916;6.988;2022-11-20T06:37:14;3.43;;;3.13;;
75303;SDS011;64042;50.916;6.988;2022-11-20T06:39:39;3.13;;;2.87;;
75303;SDS011;64042;50.916;6.988;2022-11-20T06:42:05;2.63;;;2.43;;
75303;SDS011;64042;50.916;6.988;2022-11-20T06:44:30;2.83;;;2.63;;
75303;SDS011;64042;50.916;6.988;2022-11-20T06:46:55;2.90;;;2.70;;
75303;SDS011;64042;50.916;6.988;2022-11-20T06:49:20;3.33;;;3.03;;
75303;SDS011;64042;50.916;6.988;2022-11-20T06:51:46;3.33;;;3.03;;
75303;SDS011;64042;50.916;6.988;2022-11-20T06:54:11;3.97;;;3.70;;
75303;SDS011;64042;50.916;6.988;2022-11-20T06:56:36;3.10;;;2.90;;
75303;SDS011;64042;50.916;6.988;2022-11-20T06:59:05;2.97;;;2.77;;
75303;SDS011;64042;50.916;6.988;2022-11-20T07:01:31;3.85;;;3.58;;
75303;SDS011;64042;50.916;6.988;2022-11-20T07:03:56;3.45;;;3.15;;
75303;SDS011;64042;50.916;6.988;2022-11-20T07:06:22;3.47;;;3.17;;
75303;SDS011;64042;50.916;6.988;2022-11-20T07:08:47;3.53;;;3.23;;
75303;SDS011;64042;50.916;6.988;2022-11-20T07:11:12;3.85;;;3.55;;
75303;SDS011;64042;50.916;6.988;2022-11-20T07:13:38;3.03;;;2.83;;
75303;SDS011;64042;50.916;6.988;2022-11-20T07:16:04;3.00;;;2.70;;
75303;SDS011;64042;50.916;6.988;2022-11-20T07:18:31;3.45;;;3.15;;
75303;SDS011;64042;50.916;6.988;2022-11-20T07:20:59;3.00;;;2.80;;
75303;SDS011;64042;50.916;6.988;2022-11-20T07:23:25;2.97;;;2.70;;
75303;SDS011;64042;50.916;6.988;2022-11-20T07:25:50;2.63;;;2.43;;
75303;SDS011;64042;50.916;6.988;2022-11-20T07:28:16;3.07;;;2.87;;
75303;SDS011;64042;50.916;6.988;2022-11-20T07:30:41;3.47;;;3.17;;
75303;SDS011;64042;50.916;6.988;2022-11-20T07:33:06;3.13;;;2.93;;
75303;SDS011;64042;50.916;6.988;2022-11-20T07:35:32;2.97;;;2.77;;
75303;SDS011;64042;50.916;6.988;2022-11-20T07:37:57;3.20;;;3.00;;
75303;SDS011;64042;50.916;6.988;2022-11-20T07:40:23;2.88;;;2.67;;
75303;SDS011;64042;50.916;6.988;2022-11-20T07:42:52;3.15;;;2.85;;
75303;SDS011;64042;50.916;6.988;2022-11-20T07:45:19;2.70;;;2.50;;
75303;SDS011;64042;50.916;6.988;2022-11-20T07:47:45;2.80;;;2.58;;
75303;SDS011;64042;50.916;6.988;2022-11-20T07:50:11;3.50;;;3.20;;
75303;SDS011;64042;50.916;6.988;2022-11-20T07:52:37;3.25;;;3.03;;
75303;SDS011;64042;50.916;6.988;2022-11-20T07:55:02;3.50;;;3.25;;
75303;SDS011;64042;50.916;6.988;2022-11-20T07:57:27;3.50;;;3.22;;
75303;SDS011;64042;50.916;6.988;2022-11-20T07:59:53;3.45;;;3.15;;
75303;SDS011;64042;50.916;6.988;2022-11-20T08:02:18;3.03;;;2.77;;
75303;SDS011;64042;50.916;6.988;2022-11-20T08:04:43;3.30;;;3.10;;
75303;SDS011;64042;50.916;6.988;2022-11-20T08:07:08;4.83;;;3.67;;
75303;SDS011;64042;50.916;6.988;2022-11-20T08:09:34;4.97;;;4.57;;
75303;SDS011;64042;50.916;6.988;2022-11-20T08:11:59;4.60;;;4.20;;
75303;SDS011;64042;50.916;6.988;2022-11-20T08:14:43;6.65;;;6.05;;
75303;SDS011;64042;50.916;6.988;2022-11-20T08:17:08;5.87;;;5.40;;
75303;SDS011;64042;50.916;6.988;2022-11-20T08:19:33;7.40;;;6.80;;
75303;SDS011;64042;50.916;6.988;2022-11-20T08:21:58;7.05;;;6.07;;
75303;SDS011;64042;50.916;6.988;2022-11-20T08:24:24;6.37;;;5.77;;
75303;SDS011;64042;50.916;6.988;2022-11-20T08:26:51;7.63;;;6.50;;
75303;SDS011;64042;50.916;6.988;2022-11-20T08:29:16;7.80;;;7.10;;
75303;SDS011;64042;50.916;6.988;2022-11-20T08:31:42;7.77;;;7.00;;
75303;SDS011;64042;50.916;6.988;2022-11-20T08:34:07;7.97;;;6.85;;
75303;SDS011;64042;50.916;6.988;2022-11-20T08:36:33;8.20;;;7.47;;
75303;SDS011;64042;50.916;6.988;2022-11-20T08:38:59;7.47;;;6.68;;
75303;SDS011;64042;50.916;6.988;2022-11-20T08:41:24;7.60;;;6.80;;
75303;SDS011;64042;50.916;6.988;2022-11-20T08:43:53;8.38;;;7.68;;
75303;SDS011;64042;50.916;6.988;2022-11-20T08:46:20;8.20;;;6.97;;
75303;SDS011;64042;50.916;6.988;2022-11-20T08:48:46;7.65;;;6.88;;
75303;SDS011;64042;50.916;6.988;2022-11-20T08:51:11;7.00;;;6.38;;
75303;SDS011;64042;50.916;6.988;2022-11-20T08:53:37;8.30;;;7.50;;
75303;SDS011;64042;50.916;6.988;2022-11-20T08:56:03;7.63;;;6.93;;
75303;SDS011;64042;50.916;6.988;2022-11-20T08:58:29;7.65;;;6.85;;
75303;SDS011;64042;50.916;6.988;2022-11-20T09:00:54;9.43;;;8.53;;
75303;SDS011;64042;50.916;6.988;2022-11-20T09:03:19;7.30;;;6.32;;
75303;SDS011;64042;50.916;6.988;2022-11-20T09:05:45;7.40;;;6.68;;
75303;SDS011;64042;50.916;6.988;2022-11-20T09:08:10;8.30;;;7.50;;
75303;SDS011;64042;50.916;6.988;2022-11-20T09:10:35;7.80;;;7.10;;
75303;SDS011;64042;50.916;6.988;2022-11-20T09:13:01;6.85;;;6.00;;
75303;SDS011;64042;50.916;6.988;2022-11-20T09:15:27;8.02;;;7.32;;
75303;SDS011;64042;50.916;6.988;2022-11-20T09:17:53;6.53;;;5.80;;
75303;SDS011;64042;50.916;6.988;2022-11-20T09:20:18;6.95;;;6.30;;
75303;SDS011;64042;50.916;6.988;2022-11-20T09:22:44;7.30;;;6.63;;
75303;SDS011;64042;50.916;6.988;2022-11-20T09:25:09;7.90;;;7.18;;
75303;SDS011;64042;50.916;6.988;2022-11-20T09:27:34;6.45;;;5.80;;
75303;SDS011;64042;50.916;6.988;2022-11-20T09:30:00;6.80;;;6.03;;
75303;SDS011;64042;50.916;6.988;2022-11-20T09:32:26;6.85;;;6.15;;
75303;SDS011;64042;50.916;6.988;2022-11-20T09:34:51;7.05;;;6.32;;
75303;SDS011;64042;50.916;6.988;2022-11-20T09:37:16;6.73;;;6.07;;
75303;SDS011;64042;50.916;6.988;2022-11-20T09:39:42;6.00;;;5.40;;
75303;SDS011;64042;50.916;6.988;2022-11-20T09:55:47;5.70;;;5.10;;
75303;SDS011;64042;50.916;6.988;2022-11-20T09:58:22;6.45;;;5.85;;
75303;SDS011;64042;50.916;6.988;2022-11-20T10:00:55;5.68;;;5.03;;
75303;SDS011;64042;50.916;6.988;2022-11-20T10:03:26;6.28;;;5.68;;
75303;SDS011;64042;50.916;6.988;2022-11-20T10:06:01;6.13;;;5.53;;
75303;SDS011;64042;50.916;6.988;2022-11-20T10:08:28;5.57;;;4.80;;
75303;SDS011;64042;50.916;6.988;2022-11-20T10:16:03;6.07;;;5.57;;
75303;SDS011;64042;50.916;6.988;2022-11-20T10:26:53;5.55;;;4.95;;
75303;SDS011;64042;50.916;6.988;2022-11-20T10:29:38;6.70;;;5.82;;
75303;SDS011;64042;50.916;6.988;2022-11-20T10:32:07;6.90;;;6.40;;
75303;SDS011;64042;50.916;6.988;2022-11-20T10:42:16;6.00;;;5.40;;
75303;SDS011;64042;50.916;6.988;2022-11-20T10:44:58;5.60;;;5.10;;
75303;SDS011;64042;50.916;6.988;2022-11-20T10:47:30;7.97;;;4.68;;
75303;SDS011;64042;50.916;6.988;2022-11-20T10:49:57;7.82;;;5.72;;
75303;SDS011;64042;50.916;6.988;2022-11-20T10:52:51;5.50;;;4.72;;
75303;SDS011;64042;50.916;6.988;2022-11-20T10:55:33;5.38;;;4.72;;
75303;SDS011;64042;50.916;6.988;2022-11-20T11:00:35;5.57;;;4.57;;
75303;SDS011;64042;50.916;6.988;2022-11-20T11:03:00;6.97;;;5.80;;
75303;SDS011;64042;50.916;6.988;2022-11-20T11:05:51;6.03;;;5.45;;
75303;SDS011;64042;50.916;6.988;2022-11-20T11:08:43;5.05;;;4.60;;
75303;SDS011;64042;50.916;6.988;2022-11-20T11:11:26;5.72;;;5.18;;
75303;SDS011;64042;50.916;6.988;2022-11-20T11:14:03;6.40;;;5.28;;
75303;SDS011;64042;50.916;6.988;2022-11-20T11:16:33;6.05;;;4.80;;
75303;SDS011;64042;50.916;6.988;2022-11-20T11:19:05;7.22;;;6.45;;
75303;SDS011;64042;50.916;6.988;2022-11-20T11:21:31;6.72;;;4.65;;
75303;SDS011;64042;50.916;6.988;2022-11-20T11:23:58;7.73;;;5.07;;
75303;SDS011;64042;50.916;6.988;2022-11-20T11:26:25;7.25;;;5.00;;
75303;SDS011;64042;50.916;6.988;2022-11-20T11:28:57;6.00;;;5.43;;
75303;SDS011;64042;50.916;6.988;2022-11-20T11:31:24;9.05;;;5.50;;
75303;SDS011;64042;50.916;6.988;2022-11-20T11:34:06;6.53;;;5.93;;
75303;SDS011;64042;50.916;6.988;2022-11-20T11:36:38;5.28;;;4.70;;
75303;SDS011;64042;50.916;6.988;2022-11-20T11:39:04;8.20;;;4.72;;
75303;SDS011;64042;50.916;6.988;2022-11-20T11:41:34;5.65;;;5.15;;
75303;SDS011;64042;50.916;6.988;2022-11-20T11:47:05;6.85;;;5.10;;
75303;SDS011;64042;50.916;6.988;2022-11-20T11:49:34;6.07;;;5.05;;
75303;SDS011;64042;50.916;6.988;2022-11-20T12:00:13;6.03;;;5.53;;
75303;SDS011;64042;50.916;6.988;2022-11-20T12:05:21;6.25;;;4.60;;
75303;SDS011;64042;50.916;6.988;2022-11-20T12:07:53;5.78;;;4.90;;
75303;SDS011;64042;50.916;6.988;2022-11-20T12:10:23;6.35;;;4.72;;
75303;SDS011;64042;50.916;6.988;2022-11-20T12:13:01;5.25;;;4.75;;
75303;SDS011;64042;50.916;6.988;2022-11-20T12:15:32;5.68;;;5.18;;
75303;SDS011;64042;50.916;6.988;2022-11-20T12:17:58;6.03;;;5.13;;
75303;SDS011;64042;50.916;6.988;2022-11-20T12:20:26;6.32;;;5.65;;
75303;SDS011;64042;50.916;6.988;2022-11-20T12:25:55;7.22;;;5.95;;
75303;SDS011;64042;50.916;6.988;2022-11-20T12:28:31;7.95;;;6.30;;
75303;SDS011;64042;50.916;6.988;2022-11-20T12:31:05;5.32;;;4.78;;
75303;SDS011;64042;50.916;6.988;2022-11-20T12:33:39;5.15;;;4.68;;
75303;SDS011;64042;50.916;6.988;2022-11-20T12:36:17;7.03;;;5.85;;
75303;SDS011;64042;50.916;6.988;2022-11-20T12:38:56;6.03;;;4.43;;
75303;SDS011;64042;50.916;6.988;2022-11-20T12:50:12;7.15;;;6.45;;
75303;SDS011;64042;50.916;6.988;2022-11-20T12:53:02;5.60;;;5.18;;
75303;SDS011;64042;50.916;6.988;2022-11-20T12:58:09;6.53;;;5.22;;
75303;SDS011;64042;50.916;6.988;2022-11-20T13:00:38;6.50;;;5.90;;
75303;SDS011;64042;50.916;6.988;2022-11-20T13:03:23;6.07;;;5.25;;
75303;SDS011;64042;50.916;6.988;2022-11-20T13:06:16;5.63;;;4.57;;
75303;SDS011;64042;50.916;6.988;2022-11-20T13:08:55;5.45;;;4.90;;
75303;SDS011;64042;50.916;6.988;2022-11-20T13:16:23;6.13;;;5.53;;
75303;SDS011;64042;50.916;6.988;2022-11-20T13:18:54;5.05;;;4.53;;
75303;SDS011;64042;50.916;6.988;2022-11-20T13:21:34;6.15;;;5.65;;
75303;SDS011;64042;50.916;6.988;2022-11-20T13:24:05;6.10;;;5.07;;
75303;SDS011;64042;50.916;6.988;2022-11-20T13:26:31;5.03;;;4.53;;
75303;SDS011;64042;50.916;6.988;2022-11-20T13:29:07;5.97;;;5.38;;
75303;SDS011;64042;50.916;6.988;2022-11-20T13:31:35;6.30;;;4.68;;
75303;SDS011;64042;50.916;6.988;2022-11-20T13:34:06;6.72;;;5.15;;
75303;SDS011;64042;50.916;6.988;2022-11-20T13:36:32;6.07;;;4.80;;
75303;SDS011;64042;50.916;6.988;2022-11-20T13:38:59;5.47;;;4.97;;
75303;SDS011;64042;50.916;6.988;2022-11-20T13:41:35;5.85;;;5.30;;
75303;SDS011;64042;50.916;6.988;2022-11-20T13:44:14;5.68;;;4.93;;
75303;SDS011;64042;50.916;6.988;2022-11-20T13:46:49;5.35;;;4.85;;
75303;SDS011;64042;50.916;6.988;2022-11-20T13:49:17;6.20;;;5.60;;
75303;SDS011;64042;50.916;6.988;2022-11-20T13:51:49;5.18;;;4.43;;
75303;SDS011;64042;50.916;6.988;2022-11-20T13:54:22;5.57;;;5.07;;
75303;SDS011;64042;50.916;6.988;2022-11-20T13:59:49;4.82;;;4.22;;
75303;SDS011;64042;50.916;6.988;2022-11-20T14:02:22;5.47;;;4.35;;
75303;SDS011;64042;50.916;6.988;2022-11-20T14:04:50;4.72;;;4.13;;
75303;SDS011;64042;50.916;6.988;2022-11-20T14:07:17;5.03;;;4.30;;
75303;SDS011;64042;50.916;6.988;2022-11-20T14:09:50;5.10;;;4.60;;
75303;SDS011;64042;50.916;6.988;2022-11-20T14:12:18;5.13;;;4.47;;
75303;SDS011;64042;50.916;6.988;2022-11-20T14:14:52;5.57;;;5.03;;
75303;SDS011;64042;50.916;6.988;2022-11-20T14:17:23;4.80;;;3.90;;
75303;SDS011;64042;50.916;6.988;2022-11-20T14:19:58;4.90;;;4.43;;
75303;SDS011;64042;50.916;6.988;2022-11-20T14:22:26;5.88;;;4.85;;
75303;SDS011;64042;50.916;6.988;2022-11-20T14:27:50;5.47;;;5.03;;
75303;SDS011;64042;50.916;6.988;2022-11-20T14:30:18;6.60;;;6.10;;
75303;SDS011;64042;50.916;6.988;2022-11-20T14:32:45;5.35;;;4.45;;
75303;SDS011;64042;50.916;6.988;2022-11-20T14:35:30;4.90;;;3.47;;
75303;SDS011;64042;50.916;6.988;2022-11-20T14:38:00;5.30;;;4.47;;
75303;SDS011;64042;50.916;6.988;2022-11-20T14:45:26;6.00;;;5.50;;
75303;SDS011;64042;50.916;6.988;2022-11-20T14:47:52;5.78;;;5.18;;
75303;SDS011;64042;50.916;6.988;2022-11-20T14:50:22;5.65;;;4.07;;
75303;SDS011;64042;50.916;6.988;2022-11-20T14:52:49;6.15;;;5.65;;
75303;SDS011;64042;50.916;6.988;2022-11-20T14:55:29;6.43;;;5.55;;
75303;SDS011;64042;50.916;6.988;2022-11-20T14:58:01;4.72;;;4.30;;
75303;SDS011;64042;50.916;6.988;2022-11-20T15:00:56;4.78;;;4.20;;
75303;SDS011;64042;50.916;6.988;2022-11-20T15:03:23;4.60;;;3.88;;
75303;SDS011;64042;50.916;6.988;2022-11-20T15:05:49;4.13;;;3.72;;
75303;SDS011;64042;50.916;6.988;2022-11-20T15:08:15;5.53;;;4.82;;
75303;SDS011;64042;50.916;6.988;2022-11-20T15:10:47;5.20;;;4.70;;
75303;SDS011;64042;50.916;6.988;2022-11-20T15:13:24;4.72;;;4.28;;
75303;SDS011;64042;50.916;6.988;2022-11-20T15:15:55;5.47;;;4.50;;
75303;SDS011;64042;50.916;6.988;2022-11-20T15:18:21;4.80;;;4.35;;
75303;SDS011;64042;50.916;6.988;2022-11-20T15:23:15;5.30;;;4.33;;
75303;SDS011;64042;50.916;6.988;2022-11-20T15:25:41;4.75;;;4.32;;
75303;SDS011;64042;50.916;6.988;2022-11-20T15:28:20;4.68;;;4.18;;
75303;SDS011;64042;50.916;6.988;2022-11-20T15:30:47;4.50;;;4.10;;
75303;SDS011;64042;50.916;6.988;2022-11-20T15:33:13;5.30;;;4.80;;
75303;SDS011;64042;50.916;6.988;2022-11-20T15:35:39;5.32;;;4.82;;
75303;SDS011;64042;50.916;6.988;2022-11-20T15:38:04;4.32;;;3.90;;
75303;SDS011;64042;50.916;6.988;2022-11-20T15:40:29;5.43;;;3.80;;
75303;SDS011;64042;50.916;6.988;2022-11-20T15:42:55;4.93;;;4.43;;
75303;SDS011;64042;50.916;6.988;2022-11-20T15:45:32;5.20;;;4.70;;
75303;SDS011;64042;50.916;6.988;2022-11-20T15:47:59;4.97;;;4.57;;
75303;SDS011;64042;50.916;6.988;2022-11-20T15:50:27;4.10;;;3.72;;
75303;SDS011;64042;50.916;6.988;2022-11-20T15:52:55;5.05;;;4.43;;
75303;SDS011;64042;50.916;6.988;2022-11-20T15:55:20;4.57;;;4.17;;
75303;SDS011;64042;50.916;6.988;2022-11-20T15:57:46;4.82;;;4.43;;
75303;SDS011;64042;50.916;6.988;2022-11-20T16:00:11;4.33;;;3.67;;
75303;SDS011;64042;50.916;6.988;2022-11-20T16:02:37;4.57;;;4.07;;
75303;SDS011;64042;50.916;6.988;2022-11-20T16:05:02;4.23;;;3.83;;
75303;SDS011;64042;50.916;6.988;2022-11-20T16:07:28;4.05;;;3.65;;
75303;SDS011;64042;50.916;6.988;2022-11-20T16:09:53;4.50;;;3.80;;
75303;SDS011;64042;50.916;6.988;2022-11-20T16:12:20;4.72;;;3.97;;
75303;SDS011;64042;50.916;6.988;2022-11-20T16:15:04;4.50;;;4.10;;
75303;SDS011;64042;50.916;6.988;2022-11-20T16:17:48;5.57;;;5.15;;
75303;SDS011;64042;50.916;6.988;2022-11-20T16:20:15;5.77;;;5.27;;
75303;SDS011;64042;50.916;6.988;2022-11-20T16:22:40;4.40;;;3.78;;